sensor_id;sensor_type;location;lat;lon;timestamp;pressure;altitude;pressure_sealevel;temperature
19040;BMP180;9652;49.014;12.052;2023-09-19T00:00:40;97434.00;;;19.30
19040;BMP180;9652;49.014;12.052;2023-09-19T00:03:10;97442.00;;;19.30
19040;BMP180;9652;49.014;12.052;2023-09-19T00:05:38;97424.00;;;19.30
19040;BMP180;9652;49.014;12.052;2023-09-19T00:08:06;97419.00;;;19.30
19040;BMP180;9652;49.014;12.052;2023-09-19T00:10:33;97438.00;;;19.40
19040;BMP180;9652;49.014;12.052;2023-09-19T00:13:03;97437.00;;;19.40
19040;BMP180;9652;49.014;12.052;2023-09-19T00:15:37;97415.00;;;19.40
19040;BMP180;9652;49.014;12.052;2023-09-19T00:18:05;97415.00;;;19.40
19040;BMP180;9652;49.014;12.052;2023-09-19T00:20:35;97427.00;;;19.40
19040;BMP180;9652;49.014;12.052;2023-09-19T00:23:03;97435.00;;;19.50
19040;BMP180;9652;49.014;12.052;2023-09-19T00:25:35;97423.00;;;19.50
19040;BMP180;9652;49.014;12.052;2023-09-19T00:28:04;97419.00;;;19.50
19040;BMP180;9652;49.014;12.052;2023-09-19T00:30:32;97442.00;;;19.50
19040;BMP180;9652;49.014;12.052;2023-09-19T00:32:59;97444.00;;;19.50
19040;BMP180;9652;49.014;12.052;2023-09-19T00:35:28;97430.00;;;19.50
19040;BMP180;9652;49.014;12.052;2023-09-19T00:37:58;97434.00;;;19.50
19040;BMP180;9652;49.014;12.052;2023-09-19T00:40:25;97437.00;;;19.50
19040;BMP180;9652;49.014;12.052;2023-09-19T00:42:58;97432.00;;;19.50
19040;BMP180;9652;49.014;12.052;2023-09-19T00:45:26;97423.00;;;19.50
19040;BMP180;9652;49.014;12.052;2023-09-19T00:47:55;97431.00;;;19.50
19040;BMP180;9652;49.014;12.052;2023-09-19T00:50:26;97428.00;;;19.50
19040;BMP180;9652;49.014;12.052;2023-09-19T00:52:55;97438.00;;;19.60
19040;BMP180;9652;49.014;12.052;2023-09-19T00:55:25;97396.00;;;19.60
19040;BMP180;9652;49.014;12.052;2023-09-19T00:57:56;97439.00;;;19.50
19040;BMP180;9652;49.014;12.052;2023-09-19T01:00:22;97436.00;;;19.50
19040;BMP180;9652;49.014;12.052;2023-09-19T01:02:50;97436.00;;;19.50
19040;BMP180;9652;49.014;12.052;2023-09-19T01:05:18;97432.00;;;19.50
19040;BMP180;9652;49.014;12.052;2023-09-19T01:07:45;97424.00;;;19.50
19040;BMP180;9652;49.014;12.052;2023-09-19T01:10:17;97441.00;;;19.50
19040;BMP180;9652;49.014;12.052;2023-09-19T01:12:59;97430.00;;;19.60
19040;BMP180;9652;49.014;12.052;2023-09-19T01:15:40;97439.00;;;19.60
19040;BMP180;9652;49.014;12.052;2023-09-19T01:18:21;97436.00;;;19.60
19040;BMP180;9652;49.014;12.052;2023-09-19T01:21:02;97433.00;;;19.60
19040;BMP180;9652;49.014;12.052;2023-09-19T01:24:04;97445.00;;;19.60
19040;BMP180;9652;49.014;12.052;2023-09-19T01:29:41;97446.00;;;19.60
19040;BMP180;9652;49.014;12.052;2023-09-19T01:32:15;97449.00;;;19.60
19040;BMP180;9652;49.014;12.052;2023-09-19T01:34:48;97444.00;;;19.70
19040;BMP180;9652;49.014;12.052;2023-09-19T01:37:16;97455.00;;;19.70
19040;BMP180;9652;49.014;12.052;2023-09-19T01:39:47;97446.00;;;19.70
19040;BMP180;9652;49.014;12.052;2023-09-19T01:42:28;97451.00;;;19.70
19040;BMP180;9652;49.014;12.052;2023-09-19T01:45:07;97416.00;;;19.70
19040;BMP180;9652;49.014;12.052;2023-09-19T01:47:48;97447.00;;;19.70
19040;BMP180;9652;49.014;12.052;2023-09-19T01:50:29;97448.00;;;19.70
19040;BMP180;9652;49.014;12.052;2023-09-19T01:53:04;97458.00;;;19.70
19040;BMP180;9652;49.014;12.052;2023-09-19T01:55:40;97453.00;;;19.70
19040;BMP180;9652;49.014;12.052;2023-09-19T01:58:17;97458.00;;;19.80
19040;BMP180;9652;49.014;12.052;2023-09-19T02:00:49;97437.00;;;19.80
19040;BMP180;9652;49.014;12.052;2023-09-19T02:03:21;97458.00;;;19.80
19040;BMP180;9652;49.014;12.052;2023-09-19T02:05:50;97460.00;;;19.80
19040;BMP180;9652;49.014;12.052;2023-09-19T02:08:20;97422.00;;;19.80
19040;BMP180;9652;49.014;12.052;2023-09-19T02:10:47;97455.00;;;19.80
19040;BMP180;9652;49.014;12.052;2023-09-19T02:13:16;97468.00;;;19.80
19040;BMP180;9652;49.014;12.052;2023-09-19T02:15:44;97446.00;;;19.80
19040;BMP180;9652;49.014;12.052;2023-09-19T02:18:12;97463.00;;;19.80
19040;BMP180;9652;49.014;12.052;2023-09-19T02:20:41;97440.00;;;19.80
19040;BMP180;9652;49.014;12.052;2023-09-19T02:23:10;97461.00;;;19.80
19040;BMP180;9652;49.014;12.052;2023-09-19T02:25:38;97403.00;;;19.80
19040;BMP180;9652;49.014;12.052;2023-09-19T02:28:07;97472.00;;;19.80
19040;BMP180;9652;49.014;12.052;2023-09-19T02:30:35;97465.00;;;19.80
19040;BMP180;9652;49.014;12.052;2023-09-19T02:33:03;97467.00;;;19.80
19040;BMP180;9652;49.014;12.052;2023-09-19T02:35:31;97439.00;;;19.80
19040;BMP180;9652;49.014;12.052;2023-09-19T02:38:03;97449.00;;;19.80
19040;BMP180;9652;49.014;12.052;2023-09-19T02:40:32;97472.00;;;19.80
19040;BMP180;9652;49.014;12.052;2023-09-19T02:43:02;97453.00;;;19.80
19040;BMP180;9652;49.014;12.052;2023-09-19T02:45:29;97450.00;;;19.80
19040;BMP180;9652;49.014;12.052;2023-09-19T02:47:56;97473.00;;;19.90
19040;BMP180;9652;49.014;12.052;2023-09-19T02:50:24;97470.00;;;19.90
19040;BMP180;9652;49.014;12.052;2023-09-19T02:52:51;97478.00;;;19.90
19040;BMP180;9652;49.014;12.052;2023-09-19T02:55:20;97465.00;;;19.90
19040;BMP180;9652;49.014;12.052;2023-09-19T02:57:49;97490.00;;;19.90
19040;BMP180;9652;49.014;12.052;2023-09-19T03:00:19;97467.00;;;19.90
19040;BMP180;9652;49.014;12.052;2023-09-19T03:02:47;97490.00;;;19.90
19040;BMP180;9652;49.014;12.052;2023-09-19T03:05:15;97419.00;;;19.90
19040;BMP180;9652;49.014;12.052;2023-09-19T03:07:43;97490.00;;;19.90
19040;BMP180;9652;49.014;12.052;2023-09-19T03:10:11;97491.00;;;19.90
19040;BMP180;9652;49.014;12.052;2023-09-19T03:12:42;97497.00;;;20.00
19040;BMP180;9652;49.014;12.052;2023-09-19T03:15:09;97495.00;;;20.00
19040;BMP180;9652;49.014;12.052;2023-09-19T03:17:37;97512.00;;;19.80
19040;BMP180;9652;49.014;12.052;2023-09-19T03:20:06;97503.00;;;20.00
19040;BMP180;9652;49.014;12.052;2023-09-19T03:22:34;97510.00;;;20.00
19040;BMP180;9652;49.014;12.052;2023-09-19T03:25:02;97503.00;;;20.00
19040;BMP180;9652;49.014;12.052;2023-09-19T03:27:36;97501.00;;;20.00
19040;BMP180;9652;49.014;12.052;2023-09-19T03:30:07;97516.00;;;20.00
19040;BMP180;9652;49.014;12.052;2023-09-19T03:32:35;97516.00;;;20.00
19040;BMP180;9652;49.014;12.052;2023-09-19T03:35:04;97511.00;;;20.00
19040;BMP180;9652;49.014;12.052;2023-09-19T03:37:32;97502.00;;;20.00
19040;BMP180;9652;49.014;12.052;2023-09-19T03:39:59;97493.00;;;20.00
19040;BMP180;9652;49.014;12.052;2023-09-19T03:42:31;97501.00;;;19.80
19040;BMP180;9652;49.014;12.052;2023-09-19T03:44:58;97505.00;;;20.00
19040;BMP180;9652;49.014;12.052;2023-09-19T03:47:28;97518.00;;;20.00
19040;BMP180;9652;49.014;12.052;2023-09-19T03:49:56;97468.00;;;20.00
19040;BMP180;9652;49.014;12.052;2023-09-19T03:52:24;97517.00;;;20.00
19040;BMP180;9652;49.014;12.052;2023-09-19T03:54:52;97464.00;;;20.00
19040;BMP180;9652;49.014;12.052;2023-09-19T03:57:20;97517.00;;;20.00
19040;BMP180;9652;49.014;12.052;2023-09-19T03:59:47;97502.00;;;20.00
19040;BMP180;9652;49.014;12.052;2023-09-19T04:02:14;97515.00;;;20.00
19040;BMP180;9652;49.014;12.052;2023-09-19T04:04:51;97525.00;;;20.00
19040;BMP180;9652;49.014;12.052;2023-09-19T04:07:18;97525.00;;;20.00
19040;BMP180;9652;49.014;12.052;2023-09-19T04:09:48;97514.00;;;20.00
19040;BMP180;9652;49.014;12.052;2023-09-19T04:12:15;97529.00;;;20.00
19040;BMP180;9652;49.014;12.052;2023-09-19T04:14:44;97527.00;;;20.00
19040;BMP180;9652;49.014;12.052;2023-09-19T04:17:11;97527.00;;;20.00
19040;BMP180;9652;49.014;12.052;2023-09-19T04:19:39;97518.00;;;20.00
19040;BMP180;9652;49.014;12.052;2023-09-19T04:22:08;97533.00;;;20.00
19040;BMP180;9652;49.014;12.052;2023-09-19T04:24:37;97532.00;;;20.00
19040;BMP180;9652;49.014;12.052;2023-09-19T04:27:04;97517.00;;;20.10
19040;BMP180;9652;49.014;12.052;2023-09-19T04:29:32;97530.00;;;20.00
19040;BMP180;9652;49.014;12.052;2023-09-19T04:31:59;97542.00;;;20.10
19040;BMP180;9652;49.014;12.052;2023-09-19T04:34:26;97536.00;;;20.10
19040;BMP180;9652;49.014;12.052;2023-09-19T04:36:54;97502.00;;;20.10
19040;BMP180;9652;49.014;12.052;2023-09-19T04:39:25;97528.00;;;20.10
19040;BMP180;9652;49.014;12.052;2023-09-19T04:41:53;97544.00;;;20.10
19040;BMP180;9652;49.014;12.052;2023-09-19T04:44:20;97538.00;;;20.10
19040;BMP180;9652;49.014;12.052;2023-09-19T04:46:47;97544.00;;;20.10
19040;BMP180;9652;49.014;12.052;2023-09-19T04:49:15;97555.00;;;20.10
19040;BMP180;9652;49.014;12.052;2023-09-19T04:51:42;97535.00;;;20.10
19040;BMP180;9652;49.014;12.052;2023-09-19T04:54:10;97555.00;;;20.10
19040;BMP180;9652;49.014;12.052;2023-09-19T04:56:38;97563.00;;;20.10
19040;BMP180;9652;49.014;12.052;2023-09-19T04:59:06;97566.00;;;20.10
19040;BMP180;9652;49.014;12.052;2023-09-19T05:01:33;97560.00;;;20.10
19040;BMP180;9652;49.014;12.052;2023-09-19T05:04:00;97554.00;;;20.10
19040;BMP180;9652;49.014;12.052;2023-09-19T05:06:30;97563.00;;;20.10
19040;BMP180;9652;49.014;12.052;2023-09-19T05:09:01;97562.00;;;20.10
19040;BMP180;9652;49.014;12.052;2023-09-19T05:11:31;97566.00;;;20.10
19040;BMP180;9652;49.014;12.052;2023-09-19T05:14:00;97569.00;;;20.10
19040;BMP180;9652;49.014;12.052;2023-09-19T05:16:29;97555.00;;;20.10
19040;BMP180;9652;49.014;12.052;2023-09-19T05:18:57;97565.00;;;20.00
19040;BMP180;9652;49.014;12.052;2023-09-19T05:21:25;97567.00;;;20.10
19040;BMP180;9652;49.014;12.052;2023-09-19T05:23:54;97566.00;;;20.10
19040;BMP180;9652;49.014;12.052;2023-09-19T05:26:22;97553.00;;;20.10
19040;BMP180;9652;49.014;12.052;2023-09-19T05:28:49;97578.00;;;20.10
19040;BMP180;9652;49.014;12.052;2023-09-19T05:31:18;97582.00;;;20.10
19040;BMP180;9652;49.014;12.052;2023-09-19T05:33:45;97579.00;;;20.10
19040;BMP180;9652;49.014;12.052;2023-09-19T05:36:15;97580.00;;;20.10
19040;BMP180;9652;49.014;12.052;2023-09-19T05:38:43;97581.00;;;20.10
19040;BMP180;9652;49.014;12.052;2023-09-19T05:41:11;97577.00;;;20.10
19040;BMP180;9652;49.014;12.052;2023-09-19T05:43:39;97567.00;;;20.10
19040;BMP180;9652;49.014;12.052;2023-09-19T05:46:07;97572.00;;;20.10
19040;BMP180;9652;49.014;12.052;2023-09-19T05:48:36;97571.00;;;20.10
19040;BMP180;9652;49.014;12.052;2023-09-19T05:51:05;97584.00;;;20.10
19040;BMP180;9652;49.014;12.052;2023-09-19T05:53:32;97586.00;;;20.00
19040;BMP180;9652;49.014;12.052;2023-09-19T05:55:59;97587.00;;;20.00
19040;BMP180;9652;49.014;12.052;2023-09-19T05:58:27;97587.00;;;20.00
19040;BMP180;9652;49.014;12.052;2023-09-19T06:00:54;97587.00;;;20.00
19040;BMP180;9652;49.014;12.052;2023-09-19T06:03:21;97597.00;;;19.90
19040;BMP180;9652;49.014;12.052;2023-09-19T06:05:50;97595.00;;;19.90
19040;BMP180;9652;49.014;12.052;2023-09-19T06:08:18;97593.00;;;19.90
19040;BMP180;9652;49.014;12.052;2023-09-19T06:10:46;97601.00;;;19.70
19040;BMP180;9652;49.014;12.052;2023-09-19T06:13:14;97608.00;;;19.90
19040;BMP180;9652;49.014;12.052;2023-09-19T06:15:41;97613.00;;;19.90
19040;BMP180;9652;49.014;12.052;2023-09-19T06:18:11;97610.00;;;19.90
19040;BMP180;9652;49.014;12.052;2023-09-19T06:20:40;97613.00;;;19.90
19040;BMP180;9652;49.014;12.052;2023-09-19T06:23:11;97611.00;;;19.90
19040;BMP180;9652;49.014;12.052;2023-09-19T06:25:38;97607.00;;;19.90
19040;BMP180;9652;49.014;12.052;2023-09-19T06:28:06;97629.00;;;20.00
19040;BMP180;9652;49.014;12.052;2023-09-19T06:30:38;97628.00;;;20.00
19040;BMP180;9652;49.014;12.052;2023-09-19T06:33:06;97633.00;;;20.10
19040;BMP180;9652;49.014;12.052;2023-09-19T06:35:34;97633.00;;;20.20
19040;BMP180;9652;49.014;12.052;2023-09-19T06:38:03;97635.00;;;20.30
19040;BMP180;9652;49.014;12.052;2023-09-19T06:40:34;97633.00;;;20.40
19040;BMP180;9652;49.014;12.052;2023-09-19T06:43:02;97638.00;;;20.50
19040;BMP180;9652;49.014;12.052;2023-09-19T06:45:29;97593.00;;;20.60
19040;BMP180;9652;49.014;12.052;2023-09-19T06:47:58;97641.00;;;20.70
19040;BMP180;9652;49.014;12.052;2023-09-19T06:50:26;97638.00;;;20.80
19040;BMP180;9652;49.014;12.052;2023-09-19T06:52:55;97656.00;;;20.90
19040;BMP180;9652;49.014;12.052;2023-09-19T06:55:23;97660.00;;;21.10
19040;BMP180;9652;49.014;12.052;2023-09-19T06:57:52;97658.00;;;21.20
19040;BMP180;9652;49.014;12.052;2023-09-19T07:00:20;97663.00;;;21.30
19040;BMP180;9652;49.014;12.052;2023-09-19T07:02:56;97665.00;;;21.30
19040;BMP180;9652;49.014;12.052;2023-09-19T07:05:24;97657.00;;;21.40
19040;BMP180;9652;49.014;12.052;2023-09-19T07:07:53;97669.00;;;21.40
19040;BMP180;9652;49.014;12.052;2023-09-19T07:10:22;97668.00;;;21.50
19040;BMP180;9652;49.014;12.052;2023-09-19T07:12:56;97658.00;;;21.40
19040;BMP180;9652;49.014;12.052;2023-09-19T07:15:24;97672.00;;;21.50
19040;BMP180;9652;49.014;12.052;2023-09-19T07:17:52;97674.00;;;21.50
19040;BMP180;9652;49.014;12.052;2023-09-19T07:20:20;97686.00;;;21.50
19040;BMP180;9652;49.014;12.052;2023-09-19T07:22:47;97685.00;;;21.60
19040;BMP180;9652;49.014;12.052;2023-09-19T07:25:15;97687.00;;;21.60
19040;BMP180;9652;49.014;12.052;2023-09-19T07:27:43;97679.00;;;21.60
19040;BMP180;9652;49.014;12.052;2023-09-19T07:30:13;97689.00;;;21.70
19040;BMP180;9652;49.014;12.052;2023-09-19T07:32:42;97667.00;;;21.70
19040;BMP180;9652;49.014;12.052;2023-09-19T07:35:09;97689.00;;;21.70
19040;BMP180;9652;49.014;12.052;2023-09-19T07:37:38;97689.00;;;21.80
19040;BMP180;9652;49.014;12.052;2023-09-19T07:40:06;97688.00;;;21.80
19040;BMP180;9652;49.014;12.052;2023-09-19T07:42:35;97688.00;;;21.90
19040;BMP180;9652;49.014;12.052;2023-09-19T07:45:06;97694.00;;;22.00
19040;BMP180;9652;49.014;12.052;2023-09-19T07:47:35;97693.00;;;22.10
19040;BMP180;9652;49.014;12.052;2023-09-19T07:50:02;97683.00;;;22.20
19040;BMP180;9652;49.014;12.052;2023-09-19T07:52:29;97697.00;;;22.30
19040;BMP180;9652;49.014;12.052;2023-09-19T07:54:59;97708.00;;;22.40
19040;BMP180;9652;49.014;12.052;2023-09-19T07:57:27;97702.00;;;22.60
19040;BMP180;9652;49.014;12.052;2023-09-19T07:59:54;97717.00;;;22.50
19040;BMP180;9652;49.014;12.052;2023-09-19T08:02:23;97702.00;;;22.70
19040;BMP180;9652;49.014;12.052;2023-09-19T08:04:51;97724.00;;;22.70
19040;BMP180;9652;49.014;12.052;2023-09-19T08:07:18;97710.00;;;22.70
19040;BMP180;9652;49.014;12.052;2023-09-19T08:09:45;97713.00;;;22.80
19040;BMP180;9652;49.014;12.052;2023-09-19T08:12:14;97728.00;;;22.80
19040;BMP180;9652;49.014;12.052;2023-09-19T08:14:42;97719.00;;;22.80
19040;BMP180;9652;49.014;12.052;2023-09-19T08:17:09;97724.00;;;22.80
19040;BMP180;9652;49.014;12.052;2023-09-19T08:19:37;97727.00;;;22.80
19040;BMP180;9652;49.014;12.052;2023-09-19T08:22:09;97726.00;;;22.80
19040;BMP180;9652;49.014;12.052;2023-09-19T08:24:37;97733.00;;;22.70
19040;BMP180;9652;49.014;12.052;2023-09-19T08:27:04;97724.00;;;22.70
19040;BMP180;9652;49.014;12.052;2023-09-19T08:29:35;97730.00;;;22.70
19040;BMP180;9652;49.014;12.052;2023-09-19T08:32:02;97730.00;;;22.70
19040;BMP180;9652;49.014;12.052;2023-09-19T08:34:30;97729.00;;;22.80
19040;BMP180;9652;49.014;12.052;2023-09-19T08:36:58;97733.00;;;22.80
19040;BMP180;9652;49.014;12.052;2023-09-19T08:39:27;97716.00;;;22.80
19040;BMP180;9652;49.014;12.052;2023-09-19T08:42:00;97733.00;;;22.90
19040;BMP180;9652;49.014;12.052;2023-09-19T08:44:28;97731.00;;;22.90
19040;BMP180;9652;49.014;12.052;2023-09-19T08:47:09;97723.00;;;23.00
19040;BMP180;9652;49.014;12.052;2023-09-19T08:49:49;97659.00;;;23.20
19040;BMP180;9652;49.014;12.052;2023-09-19T08:52:25;97727.00;;;23.30
19040;BMP180;9652;49.014;12.052;2023-09-19T08:54:59;97714.00;;;23.50
19040;BMP180;9652;49.014;12.052;2023-09-19T08:57:29;97726.00;;;23.60
19040;BMP180;9652;49.014;12.052;2023-09-19T09:00:02;97737.00;;;23.70
19040;BMP180;9652;49.014;12.052;2023-09-19T09:02:38;97747.00;;;23.90
19040;BMP180;9652;49.014;12.052;2023-09-19T09:05:08;97748.00;;;23.90
19040;BMP180;9652;49.014;12.052;2023-09-19T09:07:37;97752.00;;;24.10
19040;BMP180;9652;49.014;12.052;2023-09-19T09:10:07;97769.00;;;24.20
19040;BMP180;9652;49.014;12.052;2023-09-19T09:12:35;97746.00;;;24.20
19040;BMP180;9652;49.014;12.052;2023-09-19T09:15:06;97766.00;;;24.30
19040;BMP180;9652;49.014;12.052;2023-09-19T09:17:34;97778.00;;;24.40
19040;BMP180;9652;49.014;12.052;2023-09-19T09:20:02;97781.00;;;24.40
19040;BMP180;9652;49.014;12.052;2023-09-19T09:22:30;97784.00;;;24.40
19040;BMP180;9652;49.014;12.052;2023-09-19T09:24:59;97759.00;;;24.30
19040;BMP180;9652;49.014;12.052;2023-09-19T09:27:31;97773.00;;;24.30
19040;BMP180;9652;49.014;12.052;2023-09-19T09:29:58;97765.00;;;24.40
19040;BMP180;9652;49.014;12.052;2023-09-19T09:32:27;97786.00;;;24.40
19040;BMP180;9652;49.014;12.052;2023-09-19T09:34:57;97791.00;;;24.40
19040;BMP180;9652;49.014;12.052;2023-09-19T09:37:26;97786.00;;;24.40
19040;BMP180;9652;49.014;12.052;2023-09-19T09:39:57;97771.00;;;24.30
19040;BMP180;9652;49.014;12.052;2023-09-19T09:42:45;97777.00;;;24.30
19040;BMP180;9652;49.014;12.052;2023-09-19T09:45:15;97789.00;;;24.20
19040;BMP180;9652;49.014;12.052;2023-09-19T09:47:45;97785.00;;;24.20
19040;BMP180;9652;49.014;12.052;2023-09-19T09:50:27;97778.00;;;24.10
19040;BMP180;9652;49.014;12.052;2023-09-19T09:53:24;97781.00;;;24.10
19040;BMP180;9652;49.014;12.052;2023-09-19T09:56:03;97784.00;;;24.10
19040;BMP180;9652;49.014;12.052;2023-09-19T09:58:33;97801.00;;;24.10
19040;BMP180;9652;49.014;12.052;2023-09-19T10:01:03;97804.00;;;24.10
19040;BMP180;9652;49.014;12.052;2023-09-19T10:03:36;97790.00;;;24.10
19040;BMP180;9652;49.014;12.052;2023-09-19T10:06:08;97806.00;;;24.20
19040;BMP180;9652;49.014;12.052;2023-09-19T10:09:05;97789.00;;;24.20
19040;BMP180;9652;49.014;12.052;2023-09-19T10:11:42;97800.00;;;24.30
19040;BMP180;9652;49.014;12.052;2023-09-19T10:14:13;97806.00;;;24.20
19040;BMP180;9652;49.014;12.052;2023-09-19T10:16:46;97799.00;;;24.40
19040;BMP180;9652;49.014;12.052;2023-09-19T10:19:29;97785.00;;;24.60
19040;BMP180;9652;49.014;12.052;2023-09-19T10:22:02;97780.00;;;24.70
19040;BMP180;9652;49.014;12.052;2023-09-19T10:24:31;97784.00;;;24.80
19040;BMP180;9652;49.014;12.052;2023-09-19T10:27:00;97806.00;;;24.80
19040;BMP180;9652;49.014;12.052;2023-09-19T10:29:34;97800.00;;;24.90
19040;BMP180;9652;49.014;12.052;2023-09-19T10:32:04;97798.00;;;25.00
19040;BMP180;9652;49.014;12.052;2023-09-19T10:34:36;97801.00;;;25.10
19040;BMP180;9652;49.014;12.052;2023-09-19T10:37:05;97813.00;;;25.20
19040;BMP180;9652;49.014;12.052;2023-09-19T10:39:38;97797.00;;;25.20
19040;BMP180;9652;49.014;12.052;2023-09-19T10:42:08;97792.00;;;25.30
19040;BMP180;9652;49.014;12.052;2023-09-19T10:44:42;97799.00;;;25.30
19040;BMP180;9652;49.014;12.052;2023-09-19T10:47:12;97801.00;;;25.40
19040;BMP180;9652;49.014;12.052;2023-09-19T10:49:44;97798.00;;;25.40
19040;BMP180;9652;49.014;12.052;2023-09-19T10:52:15;97669.00;;;25.50
19040;BMP180;9652;49.014;12.052;2023-09-19T10:54:48;97678.00;;;25.60
19040;BMP180;9652;49.014;12.052;2023-09-19T10:57:20;97743.00;;;25.60
19040;BMP180;9652;49.014;12.052;2023-09-19T11:00:05;97809.00;;;25.60
19040;BMP180;9652;49.014;12.052;2023-09-19T11:03:19;97806.00;;;25.70
19040;BMP180;9652;49.014;12.052;2023-09-19T11:06:15;97810.00;;;25.60
19040;BMP180;9652;49.014;12.052;2023-09-19T11:08:57;97794.00;;;25.70
19040;BMP180;9652;49.014;12.052;2023-09-19T11:11:46;97829.00;;;25.70
19040;BMP180;9652;49.014;12.052;2023-09-19T11:14:39;97793.00;;;25.60
19040;BMP180;9652;49.014;12.052;2023-09-19T11:17:42;97798.00;;;25.60
19040;BMP180;9652;49.014;12.052;2023-09-19T11:20:21;97807.00;;;25.60
19040;BMP180;9652;49.014;12.052;2023-09-19T11:23:17;97802.00;;;25.60
19040;BMP180;9652;49.014;12.052;2023-09-19T11:25:49;97797.00;;;25.60
19040;BMP180;9652;49.014;12.052;2023-09-19T11:28:34;97813.00;;;25.60
19040;BMP180;9652;49.014;12.052;2023-09-19T11:31:50;97808.00;;;25.70
19040;BMP180;9652;49.014;12.052;2023-09-19T11:34:47;97798.00;;;25.70
19040;BMP180;9652;49.014;12.052;2023-09-19T11:38:04;97805.00;;;25.80
19040;BMP180;9652;49.014;12.052;2023-09-19T11:40:45;97803.00;;;25.80
19040;BMP180;9652;49.014;12.052;2023-09-19T11:43:33;97798.00;;;25.80
19040;BMP180;9652;49.014;12.052;2023-09-19T11:46:08;97793.00;;;25.80
19040;BMP180;9652;49.014;12.052;2023-09-19T11:48:35;97793.00;;;25.80
19040;BMP180;9652;49.014;12.052;2023-09-19T11:51:16;97803.00;;;25.80
19040;BMP180;9652;49.014;12.052;2023-09-19T11:53:49;97765.00;;;25.80
19040;BMP180;9652;49.014;12.052;2023-09-19T11:56:18;97789.00;;;25.80
19040;BMP180;9652;49.014;12.052;2023-09-19T11:58:46;97795.00;;;25.90
19040;BMP180;9652;49.014;12.052;2023-09-19T12:01:23;97788.00;;;25.90
19040;BMP180;9652;49.014;12.052;2023-09-19T12:03:54;97786.00;;;25.90
19040;BMP180;9652;49.014;12.052;2023-09-19T12:06:25;97770.00;;;25.90
19040;BMP180;9652;49.014;12.052;2023-09-19T12:08:53;97779.00;;;26.00
19040;BMP180;9652;49.014;12.052;2023-09-19T12:11:22;97781.00;;;26.00
19040;BMP180;9652;49.014;12.052;2023-09-19T12:13:52;97754.00;;;26.00
19040;BMP180;9652;49.014;12.052;2023-09-19T12:16:24;97801.00;;;26.00
19040;BMP180;9652;49.014;12.052;2023-09-19T12:18:52;97788.00;;;26.00
19040;BMP180;9652;49.014;12.052;2023-09-19T12:21:29;97781.00;;;26.00
19040;BMP180;9652;49.014;12.052;2023-09-19T12:24:11;97781.00;;;26.00
19040;BMP180;9652;49.014;12.052;2023-09-19T12:26:41;97785.00;;;26.00
19040;BMP180;9652;49.014;12.052;2023-09-19T12:29:14;97784.00;;;26.00
19040;BMP180;9652;49.014;12.052;2023-09-19T12:31:54;97768.00;;;26.00
19040;BMP180;9652;49.014;12.052;2023-09-19T12:34:27;97760.00;;;26.00
19040;BMP180;9652;49.014;12.052;2023-09-19T12:37:12;97774.00;;;26.00
19040;BMP180;9652;49.014;12.052;2023-09-19T12:39:45;97761.00;;;25.90
19040;BMP180;9652;49.014;12.052;2023-09-19T12:42:16;97759.00;;;25.90
19040;BMP180;9652;49.014;12.052;2023-09-19T12:44:46;97752.00;;;25.90
19040;BMP180;9652;49.014;12.052;2023-09-19T12:47:17;97768.00;;;25.90
19040;BMP180;9652;49.014;12.052;2023-09-19T12:50:12;97770.00;;;25.80
19040;BMP180;9652;49.014;12.052;2023-09-19T12:52:46;97767.00;;;25.80
19040;BMP180;9652;49.014;12.052;2023-09-19T12:55:23;97771.00;;;25.70
19040;BMP180;9652;49.014;12.052;2023-09-19T12:58:08;97774.00;;;25.70
19040;BMP180;9652;49.014;12.052;2023-09-19T13:00:38;97762.00;;;25.60
19040;BMP180;9652;49.014;12.052;2023-09-19T13:03:12;97786.00;;;25.60
19040;BMP180;9652;49.014;12.052;2023-09-19T13:06:03;97765.00;;;25.60
19040;BMP180;9652;49.014;12.052;2023-09-19T13:08:34;97758.00;;;25.50
19040;BMP180;9652;49.014;12.052;2023-09-19T13:11:06;97749.00;;;25.60
19040;BMP180;9652;49.014;12.052;2023-09-19T13:13:37;97736.00;;;25.70
19040;BMP180;9652;49.014;12.052;2023-09-19T13:16:05;97766.00;;;25.70
19040;BMP180;9652;49.014;12.052;2023-09-19T13:18:49;97758.00;;;25.70
19040;BMP180;9652;49.014;12.052;2023-09-19T13:21:31;97758.00;;;25.80
19040;BMP180;9652;49.014;12.052;2023-09-19T13:24:21;97756.00;;;25.90
19040;BMP180;9652;49.014;12.052;2023-09-19T13:26:54;97759.00;;;25.90
19040;BMP180;9652;49.014;12.052;2023-09-19T13:29:21;97743.00;;;25.90
19040;BMP180;9652;49.014;12.052;2023-09-19T13:31:49;97748.00;;;25.90
19040;BMP180;9652;49.014;12.052;2023-09-19T13:34:19;97751.00;;;25.90
19040;BMP180;9652;49.014;12.052;2023-09-19T13:36:47;97749.00;;;25.80
19040;BMP180;9652;49.014;12.052;2023-09-19T13:39:14;97750.00;;;25.80
19040;BMP180;9652;49.014;12.052;2023-09-19T13:41:44;97745.00;;;25.80
19040;BMP180;9652;49.014;12.052;2023-09-19T13:44:12;97746.00;;;25.80
19040;BMP180;9652;49.014;12.052;2023-09-19T13:46:39;97751.00;;;25.80
19040;BMP180;9652;49.014;12.052;2023-09-19T13:49:11;97745.00;;;25.80
19040;BMP180;9652;49.014;12.052;2023-09-19T13:51:39;97745.00;;;25.80
19040;BMP180;9652;49.014;12.052;2023-09-19T13:54:09;97737.00;;;25.90
19040;BMP180;9652;49.014;12.052;2023-09-19T13:56:38;97733.00;;;26.00
19040;BMP180;9652;49.014;12.052;2023-09-19T13:59:06;97738.00;;;26.10
19040;BMP180;9652;49.014;12.052;2023-09-19T14:01:33;97742.00;;;26.30
19040;BMP180;9652;49.014;12.052;2023-09-19T14:04:00;97738.00;;;26.40
19040;BMP180;9652;49.014;12.052;2023-09-19T14:06:28;97738.00;;;26.60
19040;BMP180;9652;49.014;12.052;2023-09-19T14:08:55;97747.00;;;26.70
19040;BMP180;9652;49.014;12.052;2023-09-19T14:11:22;97743.00;;;26.80
19040;BMP180;9652;49.014;12.052;2023-09-19T14:13:49;97739.00;;;26.80
19040;BMP180;9652;49.014;12.052;2023-09-19T14:16:19;97744.00;;;26.80
19040;BMP180;9652;49.014;12.052;2023-09-19T14:18:48;97744.00;;;26.70
19040;BMP180;9652;49.014;12.052;2023-09-19T14:21:16;97746.00;;;26.60
19040;BMP180;9652;49.014;12.052;2023-09-19T14:23:44;97743.00;;;26.60
19040;BMP180;9652;49.014;12.052;2023-09-19T14:26:12;97736.00;;;26.50
19040;BMP180;9652;49.014;12.052;2023-09-19T14:28:39;97739.00;;;26.40
19040;BMP180;9652;49.014;12.052;2023-09-19T14:31:07;97664.00;;;26.30
19040;BMP180;9652;49.014;12.052;2023-09-19T14:33:36;97732.00;;;26.20
19040;BMP180;9652;49.014;12.052;2023-09-19T14:36:05;97709.00;;;26.10